ADDS METAR Data INFO
IDs: Format: Raw Decoded Include TAF

Data at: 0856 UTC 19 Jun 2018

KAPC 190754Z AUTO 25003KT 10SM FEW006 12/11 A3002 RMK AO2 SLP156 T01170106 402440111
KAPC 190730Z AUTO 00000KT 10SM FEW006 12/10 A3002 RMK AO2 T01170100
KAPC 190654Z AUTO 23005KT 10SM CLR 12/11 A3002 RMK AO2 SLP156 T01220106
KAPC 190554Z AUTO 22004KT 10SM CLR 13/11 A3002 RMK AO2 SLP156 T01280106 10233 20122 51015
KAPC 190454Z AUTO 23007KT 10SM CLR 14/11 A3001 RMK AO2 SLP153 T01390106
KAPC 190354Z AUTO 25004KT 10SM CLR 16/10 A2999 RMK AO2 SLP147 T01560100
KAPC 190254Z 23013KT 10SM CLR 18/11 A2997 RMK AO2 SLP141 T01830111 58003
KAPC 190154Z 25013KT 10SM CLR 21/10 A2998 RMK AO2 SLP142 T02110100
KAPC 190054Z 26013KT 10SM CLR 23/11 A2998 RMK AO2 WSHFT 0032 SLP144 T02280106
KAPC 190052Z 26011KT 10SM CLR 23/11 A2998 RMK AO2 WSHFT 0032
KAPC 182354Z 20012KT 10SM CLR 22/13 A2999 RMK AO2 SLP147 T02220133 10244 20183 58006
KAPC 182254Z 20015KT 10SM CLR 23/14 A3000 RMK AO2 SLP150 T02280139
KAPC 182154Z 19014KT 10SM CLR 23/14 A3001 RMK AO2 SLP152 T02330144
KAPC 182054Z COR 20010KT 10SM FEW025 23/14 A3001 RMK AO2 SLP154 T02280139 58015
KAPC 181954Z 19008KT 10SM CLR 22/13 A3003 RMK AO2 SLP159 T02170133
KAPC 181854Z 21007KT 10SM CLR 20/13 A3004 RMK AO2 SLP164 T02000128
KAPC 181754Z COR 20005KT 10SM CLR 18/12 A3006 RMK AO2 SLP169 T01830117 10183 20128 50003
KAPC 181722Z 24006KT 10SM SCT015 17/12 A3006 RMK AO2 T01720117
KAPC 181719Z VRB06KT 10SM BKN015 17/12 A3006 RMK AO2 T01720117
KAPC 181654Z 23007KT 10SM BKN013 16/11 A3006 RMK AO2 SLP171 T01610111
KAPC 181554Z 28008KT 10SM OVC012 15/11 A3006 RMK AO2 SLP171 T01500111
KAPC 181454Z 29009KT 10SM OVC010 14/11 A3005 RMK AO2 SLP166 T01390111 51014
KAPC 181354Z 27010KT 10SM OVC010 13/12 A3003 RMK AO2 SLP162 T01330117
KAPC 181304Z AUTO 26008KT 10SM BKN012 13/11 A3002 RMK AO2 T01330111
KAPC 181254Z AUTO 26008KT 10SM SCT012 13/11 A3002 RMK AO2 SLP157 T01330111
KAPC 181231Z AUTO 28010KT 10SM FEW009 SCT013 13/11 A3001 RMK AO2 T01280111
KAPC 181216Z AUTO 27011KT 10SM FEW009 BKN014 13/11 A3001 RMK AO2 T01280111
KAPC 181154Z AUTO 28010KT 10SM FEW012 13/11 A3001 RMK AO2 SLP152 60000 T01280111 10150 20122 52002
KAPC 181054Z AUTO 27010KT 10SM FEW012 13/11 A3000 RMK AO2 SLP150 T01280111
KAPC 180954Z AUTO 29005KT 9SM FEW014 13/11 A3000 RMK AO2 SLP151 T01280111
KAPC 180940Z AUTO 26006KT 9SM FEW014 13/11 A3000 RMK AO2 T01280111
KAPC 180854Z AUTO 27005KT 8SM OVC013 13/12 A3000 RMK AO2 SLP149 60000 T01330117 50007
KAPC 180834Z AUTO 28005KT 9SM BKN014 13/11 A3000 RMK AO2 T01280111
KAPC 180754Z AUTO 28005KT 9SM CLR 13/11 A3000 RMK AO2 SLP150 T01330111 402170128
KAPC 180654Z AUTO 26008KT 10SM CLR 14/11 A2999 RMK AO2 RAE13 SLP148 P0000 T01390111
KAPC 180554Z AUTO 28009KT 10SM -RA CLR 14/11 A2998 RMK AO2 RAB0458 SLP143 P0000 60000 T01440111 10206 20144 53016
KAPC 180454Z AUTO 28016KT 10SM CLR 16/12 A2996 RMK AO2 SLP136 T01560117
KAPC 180354Z AUTO 27010KT 10SM CLR 17/11 A2994 RMK AO2 SLP131 T01720111
KAPC 180254Z 25010KT 10SM CLR 19/12 A2993 RMK AO2 SLP127 T01890117 53008
KAPC 180154Z 20013KT 10SM CLR 19/13 A2991 RMK AO2 SLP121 T01890128
KAPC 180054Z 19015KT 10SM CLR 20/12 A2991 RMK AO2 SLP119 T02000122
KAPC 172354Z 20017KT 10SM CLR 21/12 A2991 RMK AO2 SLP119 T02060122 10217 20183 56000
KAPC 172254Z 20019G24KT 10SM CLR 21/12 A2991 RMK AO2 SLP119 T02060117
KAPC 172154Z 20019G24KT 10SM CLR 21/12 A2990 RMK AO2 SLP118 T02060117